sensor_id;sensor_type;location;lat;lon;timestamp;pressure;altitude;pressure_sealevel;temperature;humidity
55576;BME280;41437;45.478;9.116;2023-02-15T00:00:43;101182.19;;;4.64;100.00
55576;BME280;41437;45.478;9.116;2023-02-15T00:03:47;101179.00;;;4.61;100.00
55576;BME280;41437;45.478;9.116;2023-02-15T00:06:49;101187.00;;;4.62;100.00
55576;BME280;41437;45.478;9.116;2023-02-15T00:09:51;101187.66;;;4.64;100.00
55576;BME280;41437;45.478;9.116;2023-02-15T00:12:52;101191.31;;;4.57;100.00
55576;BME280;41437;45.478;9.116;2023-02-15T00:16:02;101189.09;;;4.45;100.00
55576;BME280;41437;45.478;9.116;2023-02-15T00:19:04;101185.88;;;4.27;100.00
55576;BME280;41437;45.478;9.116;2023-02-15T00:22:06;101183.59;;;4.01;100.00
55576;BME280;41437;45.478;9.116;2023-02-15T00:25:08;101180.31;;;3.83;100.00
55576;BME280;41437;45.478;9.116;2023-02-15T00:28:09;101183.78;;;3.76;100.00
55576;BME280;41437;45.478;9.116;2023-02-15T00:31:12;101182.66;;;3.71;100.00
55576;BME280;41437;45.478;9.116;2023-02-15T00:34:16;101175.91;;;3.82;100.00
55576;BME280;41437;45.478;9.116;2023-02-15T00:37:18;101178.50;;;3.98;100.00
55576;BME280;41437;45.478;9.116;2023-02-15T00:40:20;101177.19;;;4.09;100.00
55576;BME280;41437;45.478;9.116;2023-02-15T00:43:22;101180.50;;;4.19;100.00
55576;BME280;41437;45.478;9.116;2023-02-15T00:46:25;101180.78;;;4.24;100.00
55576;BME280;41437;45.478;9.116;2023-02-15T00:49:26;101180.59;;;4.25;100.00
55576;BME280;41437;45.478;9.116;2023-02-15T00:52:28;101182.28;;;4.26;100.00
55576;BME280;41437;45.478;9.116;2023-02-15T00:55:30;101187.56;;;4.28;100.00
55576;BME280;41437;45.478;9.116;2023-02-15T00:58:32;101187.09;;;4.24;100.00
55576;BME280;41437;45.478;9.116;2023-02-15T01:01:35;101189.69;;;4.18;100.00
55576;BME280;41437;45.478;9.116;2023-02-15T01:04:36;101192.13;;;4.13;100.00
55576;BME280;41437;45.478;9.116;2023-02-15T01:07:38;101192.97;;;4.13;100.00
55576;BME280;41437;45.478;9.116;2023-02-15T01:10:40;101187.38;;;4.15;100.00
55576;BME280;41437;45.478;9.116;2023-02-15T01:13:41;101185.19;;;4.10;100.00
55576;BME280;41437;45.478;9.116;2023-02-15T01:16:44;101185.19;;;4.10;100.00
55576;BME280;41437;45.478;9.116;2023-02-15T01:19:46;101179.25;;;4.07;100.00
55576;BME280;41437;45.478;9.116;2023-02-15T01:22:48;101178.03;;;4.09;100.00
55576;BME280;41437;45.478;9.116;2023-02-15T01:25:50;101178.22;;;4.08;100.00
55576;BME280;41437;45.478;9.116;2023-02-15T01:28:51;101171.81;;;4.00;100.00
55576;BME280;41437;45.478;9.116;2023-02-15T01:31:54;101177.34;;;3.92;100.00
55576;BME280;41437;45.478;9.116;2023-02-15T01:34:56;101174.25;;;3.95;100.00
55576;BME280;41437;45.478;9.116;2023-02-15T01:37:58;101171.16;;;3.98;100.00
55576;BME280;41437;45.478;9.116;2023-02-15T01:40:59;101167.38;;;3.99;100.00
55576;BME280;41437;45.478;9.116;2023-02-15T01:44:49;101163.94;;;4.06;100.00
55576;BME280;41437;45.478;9.116;2023-02-15T01:47:56;101169.06;;;4.00;100.00
55576;BME280;41437;45.478;9.116;2023-02-15T01:51:01;101162.75;;;3.85;100.00
55576;BME280;41437;45.478;9.116;2023-02-15T01:54:07;101169.19;;;3.69;100.00
55576;BME280;41437;45.478;9.116;2023-02-15T01:57:15;101162.00;;;3.53;100.00
55576;BME280;41437;45.478;9.116;2023-02-15T02:00:19;101160.91;;;3.63;100.00
55576;BME280;41437;45.478;9.116;2023-02-15T02:03:30;101163.63;;;3.63;100.00
55576;BME280;41437;45.478;9.116;2023-02-15T02:06:32;101165.38;;;3.56;100.00
55576;BME280;41437;45.478;9.116;2023-02-15T02:09:35;101163.41;;;3.49;100.00
55576;BME280;41437;45.478;9.116;2023-02-15T02:12:38;101158.44;;;3.53;100.00
55576;BME280;41437;45.478;9.116;2023-02-15T02:15:49;101160.72;;;3.64;100.00
55576;BME280;41437;45.478;9.116;2023-02-15T02:19:28;101162.38;;;3.50;100.00
55576;BME280;41437;45.478;9.116;2023-02-15T02:26:56;101148.41;;;2.99;100.00
55576;BME280;41437;45.478;9.116;2023-02-15T02:30:26;101152.63;;;2.79;100.00
55576;BME280;41437;45.478;9.116;2023-02-15T02:33:55;101154.06;;;2.67;100.00
55576;BME280;41437;45.478;9.116;2023-02-15T02:37:09;101152.38;;;2.66;100.00
55576;BME280;41437;45.478;9.116;2023-02-15T02:40:20;101141.69;;;2.87;100.00
55576;BME280;41437;45.478;9.116;2023-02-15T02:43:31;101140.19;;;3.08;100.00
55576;BME280;41437;45.478;9.116;2023-02-15T02:46:37;101156.69;;;3.14;100.00
55576;BME280;41437;45.478;9.116;2023-02-15T02:49:43;101149.97;;;3.25;100.00
55576;BME280;41437;45.478;9.116;2023-02-15T02:52:45;101144.03;;;3.21;100.00
55576;BME280;41437;45.478;9.116;2023-02-15T02:55:50;101154.25;;;3.19;100.00
55576;BME280;41437;45.478;9.116;2023-02-15T02:58:57;101140.44;;;3.21;100.00
55576;BME280;41437;45.478;9.116;2023-02-15T03:02:04;101141.78;;;3.25;100.00
55576;BME280;41437;45.478;9.116;2023-02-15T03:05:15;101133.81;;;3.23;100.00
55576;BME280;41437;45.478;9.116;2023-02-15T03:08:19;101136.69;;;3.22;100.00
55576;BME280;41437;45.478;9.116;2023-02-15T03:11:22;101125.44;;;3.25;100.00
55576;BME280;41437;45.478;9.116;2023-02-15T03:14:24;101132.56;;;3.26;100.00
55576;BME280;41437;45.478;9.116;2023-02-15T03:17:27;101114.06;;;3.21;100.00
55576;BME280;41437;45.478;9.116;2023-02-15T03:20:33;101116.78;;;3.21;100.00
55576;BME280;41437;45.478;9.116;2023-02-15T03:23:38;101117.16;;;3.18;100.00
55576;BME280;41437;45.478;9.116;2023-02-15T03:26:43;101118.56;;;3.14;100.00
55576;BME280;41437;45.478;9.116;2023-02-15T03:29:50;101112.97;;;3.08;100.00
55576;BME280;41437;45.478;9.116;2023-02-15T03:32:53;101112.06;;;2.92;100.00
55576;BME280;41437;45.478;9.116;2023-02-15T03:36:00;101110.94;;;2.78;100.00
55576;BME280;41437;45.478;9.116;2023-02-15T03:39:09;101110.56;;;2.59;100.00
55576;BME280;41437;45.478;9.116;2023-02-15T03:42:18;101115.78;;;2.29;100.00
55576;BME280;41437;45.478;9.116;2023-02-15T03:45:24;101118.00;;;2.17;100.00
55576;BME280;41437;45.478;9.116;2023-02-15T03:48:30;101112.03;;;2.22;100.00
55576;BME280;41437;45.478;9.116;2023-02-15T03:51:37;101118.81;;;2.34;100.00
55576;BME280;41437;45.478;9.116;2023-02-15T03:54:40;101119.09;;;2.47;100.00
55576;BME280;41437;45.478;9.116;2023-02-15T03:57:46;101116.91;;;2.43;100.00
55576;BME280;41437;45.478;9.116;2023-02-15T04:01:22;101114.88;;;2.45;100.00
55576;BME280;41437;45.478;9.116;2023-02-15T04:04:46;101113.31;;;2.50;100.00
55576;BME280;41437;45.478;9.116;2023-02-15T04:07:49;101108.06;;;2.49;100.00
55576;BME280;41437;45.478;9.116;2023-02-15T04:10:51;101115.56;;;2.39;100.00
55576;BME280;41437;45.478;9.116;2023-02-15T04:13:56;101117.97;;;2.34;100.00
55576;BME280;41437;45.478;9.116;2023-02-15T04:16:58;101122.63;;;2.09;100.00
55576;BME280;41437;45.478;9.116;2023-02-15T04:19:59;101113.13;;;2.05;100.00
55576;BME280;41437;45.478;9.116;2023-02-15T04:23:23;101110.41;;;2.05;100.00
55576;BME280;41437;45.478;9.116;2023-02-15T04:26:42;101110.22;;;2.14;100.00
55576;BME280;41437;45.478;9.116;2023-02-15T04:29:43;101110.84;;;2.33;100.00
55576;BME280;41437;45.478;9.116;2023-02-15T04:32:45;101116.03;;;2.50;100.00
55576;BME280;41437;45.478;9.116;2023-02-15T04:35:47;101108.97;;;2.64;100.00
55576;BME280;41437;45.478;9.116;2023-02-15T04:38:50;101107.41;;;2.70;100.00
55576;BME280;41437;45.478;9.116;2023-02-15T04:41:51;101112.34;;;2.74;100.00
55576;BME280;41437;45.478;9.116;2023-02-15T04:44:54;101100.44;;;2.75;100.00
55576;BME280;41437;45.478;9.116;2023-02-15T04:47:55;101107.06;;;2.73;100.00
55576;BME280;41437;45.478;9.116;2023-02-15T04:50:57;101106.75;;;2.68;100.00
55576;BME280;41437;45.478;9.116;2023-02-15T04:54:00;101098.50;;;2.53;100.00
55576;BME280;41437;45.478;9.116;2023-02-15T04:57:02;101100.78;;;2.41;100.00
55576;BME280;41437;45.478;9.116;2023-02-15T05:00:04;101098.53;;;2.45;100.00
55576;BME280;41437;45.478;9.116;2023-02-15T05:03:06;101100.16;;;2.31;100.00
55576;BME280;41437;45.478;9.116;2023-02-15T05:06:08;101093.78;;;1.91;100.00
55576;BME280;41437;45.478;9.116;2023-02-15T05:09:12;101090.81;;;1.62;100.00
55576;BME280;41437;45.478;9.116;2023-02-15T05:12:14;101092.50;;;1.46;100.00
55576;BME280;41437;45.478;9.116;2023-02-15T05:15:16;101096.59;;;1.18;100.00
55576;BME280;41437;45.478;9.116;2023-02-15T05:18:18;101090.47;;;1.08;100.00
55576;BME280;41437;45.478;9.116;2023-02-15T05:21:20;101091.00;;;1.11;100.00
55576;BME280;41437;45.478;9.116;2023-02-15T05:24:25;101089.13;;;1.12;100.00
55576;BME280;41437;45.478;9.116;2023-02-15T05:27:44;101081.50;;;1.32;100.00
55576;BME280;41437;45.478;9.116;2023-02-15T05:31:04;101091.84;;;1.36;100.00
55576;BME280;41437;45.478;9.116;2023-02-15T05:34:06;101092.88;;;1.27;100.00
55576;BME280;41437;45.478;9.116;2023-02-15T05:37:08;101087.59;;;1.25;100.00
55576;BME280;41437;45.478;9.116;2023-02-15T05:40:11;101095.72;;;1.17;100.00
55576;BME280;41437;45.478;9.116;2023-02-15T05:43:13;101096.25;;;1.13;100.00
55576;BME280;41437;45.478;9.116;2023-02-15T05:46:15;101094.03;;;1.16;100.00
55576;BME280;41437;45.478;9.116;2023-02-15T05:49:16;101094.91;;;1.49;100.00
55576;BME280;41437;45.478;9.116;2023-02-15T05:52:19;101101.31;;;1.73;100.00
55576;BME280;41437;45.478;9.116;2023-02-15T05:55:22;101098.22;;;1.92;100.00
55576;BME280;41437;45.478;9.116;2023-02-15T05:58:23;101093.97;;;1.90;100.00
55576;BME280;41437;45.478;9.116;2023-02-15T06:01:25;101098.38;;;1.91;100.00
55576;BME280;41437;45.478;9.116;2023-02-15T06:04:27;101101.41;;;2.04;100.00
55576;BME280;41437;45.478;9.116;2023-02-15T06:07:28;101108.00;;;2.18;100.00
55576;BME280;41437;45.478;9.116;2023-02-15T06:10:34;101110.69;;;2.26;100.00
55576;BME280;41437;45.478;9.116;2023-02-15T06:13:36;101109.81;;;2.25;100.00
55576;BME280;41437;45.478;9.116;2023-02-15T06:16:37;101109.31;;;2.30;100.00
55576;BME280;41437;45.478;9.116;2023-02-15T06:19:39;101117.13;;;2.33;100.00
55576;BME280;41437;45.478;9.116;2023-02-15T06:22:44;101123.28;;;2.27;100.00
55576;BME280;41437;45.478;9.116;2023-02-15T06:25:47;101128.69;;;2.35;100.00
55576;BME280;41437;45.478;9.116;2023-02-15T06:28:49;101134.13;;;2.35;100.00
55576;BME280;41437;45.478;9.116;2023-02-15T06:31:51;101137.91;;;2.18;100.00
55576;BME280;41437;45.478;9.116;2023-02-15T06:34:52;101146.47;;;1.90;100.00
55576;BME280;41437;45.478;9.116;2023-02-15T06:37:54;101151.22;;;1.96;100.00
55576;BME280;41437;45.478;9.116;2023-02-15T06:40:57;101153.91;;;2.05;100.00
55576;BME280;41437;45.478;9.116;2023-02-15T06:43:59;101152.69;;;2.23;100.00
55576;BME280;41437;45.478;9.116;2023-02-15T06:47:01;101149.03;;;2.39;100.00
55576;BME280;41437;45.478;9.116;2023-02-15T06:50:02;101158.41;;;2.45;100.00
55576;BME280;41437;45.478;9.116;2023-02-15T06:53:05;101159.25;;;2.45;100.00
55576;BME280;41437;45.478;9.116;2023-02-15T06:56:09;101164.38;;;2.40;100.00
55576;BME280;41437;45.478;9.116;2023-02-15T06:59:11;101156.78;;;2.19;100.00
55576;BME280;41437;45.478;9.116;2023-02-15T07:02:13;101152.84;;;2.22;100.00
55576;BME280;41437;45.478;9.116;2023-02-15T07:05:15;101159.28;;;2.29;100.00
55576;BME280;41437;45.478;9.116;2023-02-15T07:08:20;101157.88;;;2.49;100.00
55576;BME280;41437;45.478;9.116;2023-02-15T07:11:34;101171.78;;;2.55;100.00
55576;BME280;41437;45.478;9.116;2023-02-15T07:14:53;101169.72;;;2.57;100.00
55576;BME280;41437;45.478;9.116;2023-02-15T07:26:51;101174.81;;;3.22;100.00
55576;BME280;41437;45.478;9.116;2023-02-15T07:29:53;101173.22;;;3.36;100.00
55576;BME280;41437;45.478;9.116;2023-02-15T07:32:55;101176.75;;;3.44;100.00
55576;BME280;41437;45.478;9.116;2023-02-15T07:36:14;101181.38;;;3.59;100.00
55576;BME280;41437;45.478;9.116;2023-02-15T07:39:15;101186.38;;;3.70;100.00
55576;BME280;41437;45.478;9.116;2023-02-15T07:42:18;101184.63;;;3.77;100.00
55576;BME280;41437;45.478;9.116;2023-02-15T07:45:22;101172.63;;;3.86;100.00
55576;BME280;41437;45.478;9.116;2023-02-15T07:48:23;101189.97;;;3.93;98.67
55576;BME280;41437;45.478;9.116;2023-02-15T07:51:25;101185.63;;;3.99;97.67
55576;BME280;41437;45.478;9.116;2023-02-15T07:54:27;101177.19;;;4.09;98.26
55576;BME280;41437;45.478;9.116;2023-02-15T07:57:30;101185.28;;;4.17;97.45
55576;BME280;41437;45.478;9.116;2023-02-15T08:00:32;101179.94;;;4.23;96.64
55576;BME280;41437;45.478;9.116;2023-02-15T08:03:58;101172.53;;;4.32;96.71
55576;BME280;41437;45.478;9.116;2023-02-15T08:07:01;101168.66;;;4.41;96.31
55576;BME280;41437;45.478;9.116;2023-02-15T08:10:04;101174.78;;;4.58;96.10
55576;BME280;41437;45.478;9.116;2023-02-15T08:13:07;101172.28;;;4.78;96.78
55576;BME280;41437;45.478;9.116;2023-02-15T08:16:09;101168.31;;;4.95;98.94
55576;BME280;41437;45.478;9.116;2023-02-15T08:19:12;101169.31;;;5.09;100.00
55576;BME280;41437;45.478;9.116;2023-02-15T08:22:14;101170.31;;;5.23;100.00
55576;BME280;41437;45.478;9.116;2023-02-15T08:25:16;101178.25;;;5.39;99.03
55576;BME280;41437;45.478;9.116;2023-02-15T08:28:19;101167.88;;;5.49;98.85
55576;BME280;41437;45.478;9.116;2023-02-15T08:31:20;101164.41;;;5.62;95.35
55576;BME280;41437;45.478;9.116;2023-02-15T08:34:22;101163.00;;;5.66;91.40
55576;BME280;41437;45.478;9.116;2023-02-15T08:37:24;101161.66;;;5.84;89.73
55576;BME280;41437;45.478;9.116;2023-02-15T08:40:26;101171.59;;;5.91;91.90
55576;BME280;41437;45.478;9.116;2023-02-15T08:43:29;101166.94;;;6.07;91.24
55576;BME280;41437;45.478;9.116;2023-02-15T08:46:32;101170.00;;;6.25;91.34
55576;BME280;41437;45.478;9.116;2023-02-15T08:49:34;101170.28;;;6.37;84.66
55576;BME280;41437;45.478;9.116;2023-02-15T08:52:36;101173.75;;;6.52;84.83
55576;BME280;41437;45.478;9.116;2023-02-15T08:55:38;101169.06;;;6.87;85.00
55576;BME280;41437;45.478;9.116;2023-02-15T08:58:42;101175.88;;;6.98;84.25
55576;BME280;41437;45.478;9.116;2023-02-15T09:01:46;101173.19;;;7.11;82.74
55576;BME280;41437;45.478;9.116;2023-02-15T09:04:48;101169.22;;;7.27;81.52
55576;BME280;41437;45.478;9.116;2023-02-15T09:07:50;101167.16;;;7.42;83.17
55576;BME280;41437;45.478;9.116;2023-02-15T09:10:51;101173.94;;;7.73;82.59
55576;BME280;41437;45.478;9.116;2023-02-15T09:13:56;101180.31;;;7.93;81.94
55576;BME280;41437;45.478;9.116;2023-02-15T09:16:58;101175.44;;;8.09;81.15
55576;BME280;41437;45.478;9.116;2023-02-15T09:20:18;101174.59;;;8.28;79.87
55576;BME280;41437;45.478;9.116;2023-02-15T09:23:19;101173.13;;;8.45;79.51
55576;BME280;41437;45.478;9.116;2023-02-15T09:26:23;101176.44;;;8.61;77.34
55576;BME280;41437;45.478;9.116;2023-02-15T09:29:26;101166.47;;;8.73;77.56
55576;BME280;41437;45.478;9.116;2023-02-15T09:32:27;101162.41;;;8.89;76.83
55576;BME280;41437;45.478;9.116;2023-02-15T09:35:29;101175.63;;;9.12;75.05
55576;BME280;41437;45.478;9.116;2023-02-15T09:38:30;101177.25;;;9.26;73.95
55576;BME280;41437;45.478;9.116;2023-02-15T09:45:23;101167.59;;;9.48;70.41
55576;BME280;41437;45.478;9.116;2023-02-15T09:48:40;101166.47;;;9.63;69.20
55576;BME280;41437;45.478;9.116;2023-02-15T09:51:57;101158.22;;;9.63;66.55
55576;BME280;41437;45.478;9.116;2023-02-15T09:55:15;101161.03;;;9.81;66.48
55576;BME280;41437;45.478;9.116;2023-02-15T09:58:25;101161.53;;;9.96;66.21
55576;BME280;41437;45.478;9.116;2023-02-15T10:01:38;101154.47;;;10.07;65.46
55576;BME280;41437;45.478;9.116;2023-02-15T10:04:54;101158.50;;;10.29;65.10
55576;BME280;41437;45.478;9.116;2023-02-15T10:08:21;101158.91;;;10.33;63.87
55576;BME280;41437;45.478;9.116;2023-02-15T10:11:40;101154.53;;;10.44;63.01
55576;BME280;41437;45.478;9.116;2023-02-15T10:15:00;101160.16;;;10.74;63.37
55576;BME280;41437;45.478;9.116;2023-02-15T10:18:22;101156.09;;;10.95;61.78
55576;BME280;41437;45.478;9.116;2023-02-15T10:21:38;101146.94;;;11.13;60.44
55576;BME280;41437;45.478;9.116;2023-02-15T10:28:16;101147.41;;;11.40;59.70
55576;BME280;41437;45.478;9.116;2023-02-15T10:31:24;101158.06;;;11.66;58.94
55576;BME280;41437;45.478;9.116;2023-02-15T10:34:32;101146.75;;;11.86;57.40
55576;BME280;41437;45.478;9.116;2023-02-15T10:37:50;101149.63;;;11.91;57.24
55576;BME280;41437;45.478;9.116;2023-02-15T10:41:09;101145.97;;;11.79;58.13
55576;BME280;41437;45.478;9.116;2023-02-15T10:44:22;101145.50;;;11.82;57.67
55576;BME280;41437;45.478;9.116;2023-02-15T10:47:39;101140.75;;;11.89;57.99
55576;BME280;41437;45.478;9.116;2023-02-15T10:50:49;101141.25;;;11.98;56.35
55576;BME280;41437;45.478;9.116;2023-02-15T10:54:06;101132.94;;;12.21;54.27
55576;BME280;41437;45.478;9.116;2023-02-15T10:57:18;101127.91;;;12.30;54.12
55576;BME280;41437;45.478;9.116;2023-02-15T11:00:26;101127.28;;;12.51;52.67
55576;BME280;41437;45.478;9.116;2023-02-15T11:03:50;101115.44;;;12.79;51.29
55576;BME280;41437;45.478;9.116;2023-02-15T11:06:59;101110.66;;;12.75;51.44
55576;BME280;41437;45.478;9.116;2023-02-15T11:10:11;101106.34;;;12.67;51.94
55576;BME280;41437;45.478;9.116;2023-02-15T11:13:17;101099.94;;;12.78;52.02
55576;BME280;41437;45.478;9.116;2023-02-15T11:16:22;101096.53;;;12.88;52.00
55576;BME280;41437;45.478;9.116;2023-02-15T11:19:30;101095.69;;;12.88;52.41
55576;BME280;41437;45.478;9.116;2023-02-15T11:22:34;101087.00;;;12.96;50.38
55576;BME280;41437;45.478;9.116;2023-02-15T11:25:39;101086.38;;;13.05;50.75
55576;BME280;41437;45.478;9.116;2023-02-15T11:28:45;101075.41;;;13.11;51.61
55576;BME280;41437;45.478;9.116;2023-02-15T11:31:51;101074.91;;;13.14;50.75
55576;BME280;41437;45.478;9.116;2023-02-15T11:34:58;101066.47;;;13.20;51.02
55576;BME280;41437;45.478;9.116;2023-02-15T11:38:05;101068.88;;;13.28;50.10
55576;BME280;41437;45.478;9.116;2023-02-15T11:41:14;101070.66;;;13.51;49.97
55576;BME280;41437;45.478;9.116;2023-02-15T11:44:21;101069.75;;;13.63;49.70
55576;BME280;41437;45.478;9.116;2023-02-15T11:47:24;101060.06;;;13.48;50.74
55576;BME280;41437;45.478;9.116;2023-02-15T11:50:27;101058.03;;;13.44;50.05
55576;BME280;41437;45.478;9.116;2023-02-15T11:53:32;101055.06;;;13.45;49.80
55576;BME280;41437;45.478;9.116;2023-02-15T11:56:37;101056.03;;;13.39;50.52
55576;BME280;41437;45.478;9.116;2023-02-15T11:59:41;101047.31;;;13.47;50.44
55576;BME280;41437;45.478;9.116;2023-02-15T12:02:46;101041.28;;;13.50;49.47
55576;BME280;41437;45.478;9.116;2023-02-15T12:05:55;101034.81;;;13.62;49.58
55576;BME280;41437;45.478;9.116;2023-02-15T12:09:05;101032.13;;;13.67;50.56
55576;BME280;41437;45.478;9.116;2023-02-15T12:12:22;101032.88;;;13.79;48.21
55576;BME280;41437;45.478;9.116;2023-02-15T12:15:30;101034.72;;;13.90;48.37
55576;BME280;41437;45.478;9.116;2023-02-15T12:18:35;101030.50;;;14.04;48.16
55576;BME280;41437;45.478;9.116;2023-02-15T12:21:41;101031.28;;;14.22;47.02
55576;BME280;41437;45.478;9.116;2023-02-15T12:24:46;101017.16;;;14.23;46.99
55576;BME280;41437;45.478;9.116;2023-02-15T12:27:49;101010.16;;;14.38;46.79
55576;BME280;41437;45.478;9.116;2023-02-15T12:30:55;101009.19;;;14.27;47.04
55576;BME280;41437;45.478;9.116;2023-02-15T12:34:00;101003.13;;;14.30;46.79
55576;BME280;41437;45.478;9.116;2023-02-15T12:37:09;100988.88;;;14.65;46.20
55576;BME280;41437;45.478;9.116;2023-02-15T12:40:24;100990.94;;;14.75;45.29
55576;BME280;41437;45.478;9.116;2023-02-15T12:43:27;100983.22;;;14.77;44.96
55576;BME280;41437;45.478;9.116;2023-02-15T12:46:35;100977.28;;;14.68;46.48
55576;BME280;41437;45.478;9.116;2023-02-15T12:49:37;100977.53;;;14.67;46.04
55576;BME280;41437;45.478;9.116;2023-02-15T12:52:39;100969.28;;;14.72;45.40
55576;BME280;41437;45.478;9.116;2023-02-15T12:55:52;100968.97;;;14.68;44.99
55576;BME280;41437;45.478;9.116;2023-02-15T12:59:04;100961.75;;;14.67;45.41
55576;BME280;41437;45.478;9.116;2023-02-15T13:02:19;100956.84;;;14.79;45.72
55576;BME280;41437;45.478;9.116;2023-02-15T13:05:30;100955.91;;;14.96;45.87
55576;BME280;41437;45.478;9.116;2023-02-15T13:08:43;100952.31;;;14.95;44.63
55576;BME280;41437;45.478;9.116;2023-02-15T13:11:48;100946.19;;;14.93;45.24
55576;BME280;41437;45.478;9.116;2023-02-15T13:14:50;100940.56;;;14.88;45.18
55576;BME280;41437;45.478;9.116;2023-02-15T13:17:55;100938.06;;;14.87;44.11
55576;BME280;41437;45.478;9.116;2023-02-15T13:20:57;100937.19;;;14.81;43.09
55576;BME280;41437;45.478;9.116;2023-02-15T13:24:02;100934.19;;;14.88;43.75
55576;BME280;41437;45.478;9.116;2023-02-15T13:27:13;100934.31;;;14.98;44.19
55576;BME280;41437;45.478;9.116;2023-02-15T13:30:25;100921.63;;;15.07;43.02
55576;BME280;41437;45.478;9.116;2023-02-15T13:33:32;100927.69;;;15.04;44.31
55576;BME280;41437;45.478;9.116;2023-02-15T13:36:40;100928.53;;;15.04;43.91
55576;BME280;41437;45.478;9.116;2023-02-15T13:39:48;100926.38;;;15.12;43.70
55576;BME280;41437;45.478;9.116;2023-02-15T13:42:56;100922.97;;;15.04;43.94
55576;BME280;41437;45.478;9.116;2023-02-15T13:46:10;100909.72;;;15.12;43.86
55576;BME280;41437;45.478;9.116;2023-02-15T13:49:26;100913.53;;;15.05;44.06
55576;BME280;41437;45.478;9.116;2023-02-15T13:52:35;100910.47;;;15.02;43.95
55576;BME280;41437;45.478;9.116;2023-02-15T13:55:50;100906.28;;;14.99;44.01
55576;BME280;41437;45.478;9.116;2023-02-15T13:59:21;100900.75;;;15.04;43.80
55576;BME280;41437;45.478;9.116;2023-02-15T14:02:42;100898.22;;;14.98;43.00
55576;BME280;41437;45.478;9.116;2023-02-15T14:06:05;100891.56;;;14.99;43.28
55576;BME280;41437;45.478;9.116;2023-02-15T14:09:21;100891.03;;;15.02;43.88
55576;BME280;41437;45.478;9.116;2023-02-15T14:12:37;100883.84;;;15.06;42.85
55576;BME280;41437;45.478;9.116;2023-02-15T14:15:47;100890.50;;;15.05;43.15
55576;BME280;41437;45.478;9.116;2023-02-15T14:18:55;100891.91;;;15.07;42.47
55576;BME280;41437;45.478;9.116;2023-02-15T14:22:06;100886.16;;;15.19;43.68
55576;BME280;41437;45.478;9.116;2023-02-15T14:25:17;100880.25;;;15.11;43.39
55576;BME280;41437;45.478;9.116;2023-02-15T14:28:27;100881.91;;;15.06;43.47
55576;BME280;41437;45.478;9.116;2023-02-15T14:31:36;100882.75;;;15.07;42.96
55576;BME280;41437;45.478;9.116;2023-02-15T14:34:44;100880.22;;;15.05;43.79
55576;BME280;41437;45.478;9.116;2023-02-15T14:37:52;100883.03;;;15.11;43.22
55576;BME280;41437;45.478;9.116;2023-02-15T14:40:59;100880.84;;;15.13;43.17
55576;BME280;41437;45.478;9.116;2023-02-15T14:44:11;100875.50;;;15.06;42.81
55576;BME280;41437;45.478;9.116;2023-02-15T14:47:18;100875.50;;;15.06;42.50
55576;BME280;41437;45.478;9.116;2023-02-15T14:50:37;100876.72;;;15.15;41.53
55576;BME280;41437;45.478;9.116;2023-02-15T14:53:39;100880.03;;;15.17;41.25
55576;BME280;41437;45.478;9.116;2023-02-15T14:56:43;100878.63;;;15.15;41.08
55576;BME280;41437;45.478;9.116;2023-02-15T14:59:50;100867.97;;;15.01;42.11
55576;BME280;41437;45.478;9.116;2023-02-15T15:02:57;100873.25;;;14.98;42.21
55576;BME280;41437;45.478;9.116;2023-02-15T15:06:01;100872.72;;;15.06;41.80
55576;BME280;41437;45.478;9.116;2023-02-15T15:09:11;100861.91;;;15.04;41.41
55576;BME280;41437;45.478;9.116;2023-02-15T15:15:34;100856.41;;;15.15;42.24
55576;BME280;41437;45.478;9.116;2023-02-15T15:18:46;100859.94;;;15.00;42.15
55576;BME280;41437;45.478;9.116;2023-02-15T15:21:55;100859.03;;;14.89;42.14
55576;BME280;41437;45.478;9.116;2023-02-15T15:24:57;100859.97;;;15.05;41.68
55576;BME280;41437;45.478;9.116;2023-02-15T15:27:59;100856.00;;;14.96;42.09
55576;BME280;41437;45.478;9.116;2023-02-15T15:31:04;100854.06;;;14.96;41.27
55576;BME280;41437;45.478;9.116;2023-02-15T15:34:38;100856.53;;;14.93;41.71
55576;BME280;41437;45.478;9.116;2023-02-15T15:37:56;100858.41;;;14.82;41.35
55576;BME280;41437;45.478;9.116;2023-02-15T15:41:17;100862.28;;;14.81;41.26
55576;BME280;41437;45.478;9.116;2023-02-15T15:44:48;100864.44;;;14.74;41.50
55576;BME280;41437;45.478;9.116;2023-02-15T15:48:11;100858.16;;;14.89;42.23
55576;BME280;41437;45.478;9.116;2023-02-15T15:51:22;100859.06;;;14.94;41.76
55576;BME280;41437;45.478;9.116;2023-02-15T15:54:31;100857.03;;;14.85;41.97
55576;BME280;41437;45.478;9.116;2023-02-15T15:57:34;100850.34;;;14.80;42.25
55576;BME280;41437;45.478;9.116;2023-02-15T16:00:46;100858.00;;;14.68;42.44
55576;BME280;41437;45.478;9.116;2023-02-15T16:03:49;100855.97;;;14.58;42.61
55576;BME280;41437;45.478;9.116;2023-02-15T16:06:56;100867.69;;;14.66;42.47
55576;BME280;41437;45.478;9.116;2023-02-15T16:09:59;100854.91;;;14.65;42.33
55576;BME280;41437;45.478;9.116;2023-02-15T16:13:05;100861.53;;;14.58;42.52
55576;BME280;41437;45.478;9.116;2023-02-15T16:16:07;100859.78;;;14.52;42.32
55576;BME280;41437;45.478;9.116;2023-02-15T16:19:18;100856.19;;;14.30;42.37
55576;BME280;41437;45.478;9.116;2023-02-15T16:22:25;100855.00;;;13.99;43.57
55576;BME280;41437;45.478;9.116;2023-02-15T16:25:46;100853.81;;;13.68;44.05
55576;BME280;41437;45.478;9.116;2023-02-15T16:28:51;100863.16;;;13.45;44.70
55576;BME280;41437;45.478;9.116;2023-02-15T16:31:59;100853.22;;;13.27;45.58
55576;BME280;41437;45.478;9.116;2023-02-15T16:35:03;100864.66;;;13.19;46.00
55576;BME280;41437;45.478;9.116;2023-02-15T16:38:08;100868.72;;;13.11;46.33
55576;BME280;41437;45.478;9.116;2023-02-15T16:41:12;100867.22;;;12.87;47.02